Time;durP1;ratioP1;P1;durP2;ratioP2;P2;SDS_P1;SDS_P2;PMS_P1;PMS_P2;Temp;Humidity;BMP_temperature;BMP_pressure;BME280_temperature;BME280_humidity;BME280_pressure;Samples;Min_cycle;Max_cycle;Signal;HPM_P1;HPM_P2
2020/12/13 00:00:37;;;;;;;87.93;28.65;;;5.70;99.90;;;;;;5039605;28;20047;-69
2020/12/13 00:03:02;;;;;;;118.80;30.65;;;5.70;99.90;;;;;;5042211;28;20048;-69
2020/12/13 00:05:29;;;;;;;103.80;30.65;;;5.60;99.90;;;;;;5059598;28;20127;-69
2020/12/13 00:07:55;;;;;;;95.55;27.95;;;5.60;99.90;;;;;;5030423;28;20494;-69
2020/12/13 00:10:22;;;;;;;74.05;26.95;;;5.70;99.90;;;;;;5035420;28;20051;-68
2020/12/13 00:12:47;;;;;;;91.47;28.40;;;5.70;99.90;;;;;;5032627;28;20127;-69
2020/12/13 00:15:13;;;;;;;82.47;27.52;;;5.70;99.90;;;;;;5039172;28;20045;-70
2020/12/13 00:17:59;;;;;;;76.50;27.17;;;5.70;99.90;;;;;;5047635;28;20049;-69
2020/12/13 00:20:25;;;;;;;109.50;31.00;;;5.60;99.90;;;;;;5043861;28;20072;-68
2020/12/13 00:22:50;;;;;;;112.38;30.92;;;5.60;99.90;;;;;;5028529;28;20486;-68
2020/12/13 00:25:16;;;;;;;96.25;31.17;;;5.60;99.90;;;;;;5037926;28;20037;-68
2020/12/13 00:27:42;;;;;;;97.68;32.17;;;5.70;99.90;;;;;;5029624;28;20255;-70
2020/12/13 00:30:07;;;;;;;141.57;33.72;;;5.70;99.90;;;;;;5036496;28;20053;-69
2020/12/13 00:32:53;;;;;;;113.60;33.05;;;5.60;99.90;;;;;;5028605;28;20045;-70
2020/12/13 00:35:39;;;;;;;85.50;30.80;;;5.70;99.90;;;;;;5052255;28;20421;-70
2020/12/13 00:38:04;;;;;;;101.95;32.53;;;5.70;99.90;;;;;;5028275;28;20045;-69
2020/12/13 00:40:30;;;;;;;89.00;31.15;;;5.70;99.90;;;;;;5036494;28;20037;-69
2020/12/13 00:43:15;;;;;;;87.10;30.27;;;5.70;99.90;;;;;;5041595;28;20139;-71
2020/12/13 00:45:41;;;;;;;77.72;30.90;;;5.80;99.90;;;;;;5058952;28;20537;-69
2020/12/13 00:48:09;;;;;;;93.88;33.40;;;5.80;99.90;;;;;;5043230;28;20056;-69
2020/12/13 00:50:38;;;;;;;91.13;31.73;;;5.80;99.80;;;;;;5044029;28;20062;-69
2020/12/13 00:53:05;;;;;;;83.43;30.33;;;5.80;99.90;;;;;;5024360;28;20048;-69
2020/12/13 00:55:30;;;;;;;75.45;29.33;;;5.80;99.80;;;;;;5033935;28;20584;-69
2020/12/13 00:58:16;;;;;;;79.18;32.03;;;5.80;99.80;;;;;;5023656;28;20037;-69
2020/12/13 01:00:41;;;;;;;71.55;28.77;;;5.80;99.70;;;;;;5032782;28;20056;-69
2020/12/13 01:03:07;;;;;;;83.25;30.20;;;5.80;99.70;;;;;;5043067;28;20127;-69
2020/12/13 01:05:53;;;;;;;209.60;36.20;;;5.70;99.70;;;;;;5038234;28;20671;-69
2020/12/13 01:08:18;;;;;;;107.40;30.65;;;5.50;99.90;;;;;;5035276;28;20365;-69
2020/12/13 01:10:45;;;;;;;163.35;32.00;;;5.60;99.90;;;;;;5042313;28;20547;-69
2020/12/13 01:13:11;;;;;;;211.57;33.88;;;5.50;99.90;;;;;;5036592;28;20493;-69
2020/12/13 01:15:36;;;;;;;85.03;29.60;;;5.50;99.90;;;;;;5042283;28;20059;-70
2020/12/13 01:18:02;;;;;;;111.75;26.80;;;5.40;99.90;;;;;;5043211;28;20393;-69
2020/12/13 01:20:28;;;;;;;50.95;23.92;;;5.40;99.90;;;;;;5040277;28;20037;-69
2020/12/13 01:22:54;;;;;;;53.85;22.58;;;5.30;99.80;;;;;;5043129;28;20048;-69
2020/12/13 01:25:19;;;;;;;53.13;23.63;;;5.30;99.60;;;;;;5040763;28;20501;-69
2020/12/13 01:27:45;;;;;;;49.58;23.30;;;5.40;99.80;;;;;;5028383;28;21116;-69
2020/12/13 01:30:10;;;;;;;50.63;22.15;;;5.30;99.60;;;;;;5037076;28;20502;-69
2020/12/13 01:32:38;;;;;;;40.67;21.25;;;5.20;99.70;;;;;;5036397;28;20051;-69
2020/12/13 01:35:04;;;;;;;40.88;19.00;;;5.10;99.80;;;;;;5038305;28;20038;-69
2020/12/13 01:37:29;;;;;;;40.53;19.58;;;5.10;99.80;;;;;;5035631;28;20041;-69
2020/12/13 01:39:55;;;;;;;39.22;20.23;;;5.10;99.80;;;;;;5039497;28;20069;-69
2020/12/13 01:42:20;;;;;;;51.05;23.05;;;5.10;99.90;;;;;;5033703;28;20053;-69
2020/12/13 01:45:08;;;;;;;73.72;25.33;;;5.10;99.90;;;;;;5038742;28;20467;-69
2020/12/13 01:47:33;;;;;;;101.60;27.92;;;5.00;99.90;;;;;;5049038;28;20051;-70
2020/12/13 01:49:59;;;;;;;114.78;27.73;;;5.00;99.90;;;;;;5041516;28;20053;-68
2020/12/13 01:52:48;;;;;;;85.82;28.35;;;5.00;99.90;;;;;;5056603;28;20045;-69
2020/12/13 01:55:33;;;;;;;72.80;25.92;;;5.00;99.90;;;;;;5037212;28;20048;-69
2020/12/13 01:58:01;;;;;;;74.78;25.60;;;5.10;99.90;;;;;;5043462;28;20059;-69
2020/12/13 02:00:27;;;;;;;68.00;26.45;;;5.00;99.90;;;;;;5039345;28;20048;-69
2020/12/13 02:02:58;;;;;;;77.68;28.83;;;5.10;99.90;;;;;;5044423;28;20048;-68
2020/12/13 02:05:25;;;;;;;121.72;24.67;;;5.00;99.90;;;;;;5034544;28;20053;-70
2020/12/13 02:07:54;;;;;;;47.95;23.35;;;5.00;99.90;;;;;;5043142;28;20045;-69
2020/12/13 02:10:20;;;;;;;36.05;19.05;;;5.10;99.90;;;;;;5041138;28;20442;-69
2020/12/13 02:12:46;;;;;;;28.08;17.73;;;5.00;99.60;;;;;;5043110;28;20140;-70
2020/12/13 02:15:11;;;;;;;24.58;15.80;;;4.90;99.50;;;;;;5037184;28;20052;-68
2020/12/13 02:17:37;;;;;;;26.50;16.83;;;5.00;99.60;;;;;;5039728;28;20053;-68
2020/12/13 02:20:07;;;;;;;29.50;17.58;;;4.90;99.30;;;;;;5034405;28;20045;-69
2020/12/13 02:22:38;;;;;;;26.08;16.83;;;5.00;99.40;;;;;;5039731;28;20049;-69
2020/12/13 02:25:11;;;;;;;23.70;15.75;;;4.90;99.80;;;;;;5037247;28;20037;-69
2020/12/13 02:27:38;;;;;;;31.35;17.83;;;4.90;99.40;;;;;;5041139;28;20495;-69
2020/12/13 02:30:05;;;;;;;28.90;16.98;;;4.80;99.40;;;;;;5038726;28;20045;-69
2020/12/13 02:32:51;;;;;;;32.40;18.38;;;4.80;99.40;;;;;;5026930;28;20140;-71
2020/12/13 02:35:16;;;;;;;33.63;18.92;;;4.90;99.60;;;;;;5040100;28;20108;-69
2020/12/13 02:37:42;;;;;;;36.90;19.02;;;4.80;99.60;;;;;;5046320;28;20044;-68
2020/12/13 02:40:08;;;;;;;35.80;20.40;;;4.80;99.60;;;;;;5041333;28;20037;-69
2020/12/13 02:42:34;;;;;;;39.13;21.67;;;4.80;99.80;;;;;;5047061;28;20045;-69
2020/12/13 02:45:20;;;;;;;35.35;20.98;;;4.70;99.80;;;;;;5026738;28;20061;-68
2020/12/13 02:47:45;;;;;;;41.72;22.30;;;4.70;99.70;;;;;;5027422;28;20053;-69
2020/12/13 02:50:11;;;;;;;49.50;24.55;;;4.70;99.80;;;;;;5046098;28;20659;-69
2020/12/13 02:52:37;;;;;;;44.90;21.98;;;4.70;99.80;;;;;;5044763;28;20574;-68
2020/12/13 02:55:03;;;;;;;49.42;23.27;;;4.70;99.90;;;;;;5045439;28;20396;-69
2020/12/13 02:57:28;;;;;;;48.15;24.02;;;4.60;99.90;;;;;;5032020;28;20038;-69
2020/12/13 02:59:54;;;;;;;49.15;23.42;;;4.60;99.90;;;;;;5041572;28;20049;-68
2020/12/13 03:02:20;;;;;;;54.80;23.88;;;4.60;99.90;;;;;;5034118;28;20056;-68
2020/12/13 03:05:05;;;;;;;53.97;22.90;;;4.60;99.90;;;;;;5043231;28;20056;-69
2020/12/13 03:07:51;;;;;;;60.85;21.60;;;4.50;99.90;;;;;;5029763;28;20363;-69
2020/12/13 03:10:16;;;;;;;609.38;34.40;;;4.40;99.90;;;;;;5042893;28;20051;-69
2020/12/13 03:12:42;;;;;;;518.60;26.83;;;4.10;99.50;;;;;;5034168;28;20049;-69
2020/12/13 03:15:07;;;;;;;424.70;26.88;;;3.80;99.70;;;;;;5042320;28;20047;-69
2020/12/13 03:17:33;;;;;;;296.02;17.08;;;3.80;99.90;;;;;;5041983;28;20099;-69
2020/12/13 03:19:58;;;;;;;445.52;23.05;;;3.60;99.90;;;;;;5046029;28;20044;-69
2020/12/13 03:22:24;;;;;;;556.67;30.90;;;3.40;99.90;;;;;;5030166;28;20068;-69
2020/12/13 03:25:10;;;;;;;98.40;17.20;;;3.40;99.90;;;;;;5052293;28;20131;-69
2020/12/13 03:27:56;;;;;;;102.00;18.70;;;3.40;99.90;;;;;;5043918;28;20087;-69
2020/12/13 03:30:21;;;;;;;143.35;24.52;;;3.40;99.90;;;;;;5046074;28;20052;-69
2020/12/13 03:33:07;;;;;;;167.18;22.50;;;3.30;99.90;;;;;;5044590;28;20052;-69
2020/12/13 03:35:32;;;;;;;123.28;21.27;;;3.30;99.90;;;;;;5040832;28;20041;-69
2020/12/13 03:38:18;;;;;;;234.52;22.15;;;3.30;99.90;;;;;;5036893;28;20053;-69
2020/12/13 03:40:44;;;;;;;702.63;40.13;;;3.20;99.90;;;;;;5038086;28;20521;-69
2020/12/13 03:43:29;;;;;;;724.90;40.70;;;3.10;99.90;;;;;;5038163;28;20050;-69
2020/12/13 03:46:15;;;;;;;606.95;34.15;;;3.00;99.90;;;;;;5039432;28;20068;-69
2020/12/13 03:48:40;;;;;;;748.50;46.60;;;3.00;99.90;;;;;;5025687;28;20466;-69
2020/12/13 03:51:06;;;;;;;151.98;20.27;;;2.90;99.90;;;;;;5037611;28;20490;-68
2020/12/13 03:53:31;;;;;;;357.20;32.10;;;2.90;99.90;;;;;;5024744;28;20049;-69
2020/12/13 03:55:57;;;;;;;246.90;22.65;;;2.90;99.90;;;;;;5039034;28;20418;-69
2020/12/13 03:58:23;;;;;;;183.57;25.63;;;2.90;99.90;;;;;;5024953;28;20653;-68
2020/12/13 04:01:08;;;;;;;411.48;29.05;;;2.90;99.90;;;;;;5053781;28;20048;-68
2020/12/13 04:03:34;;;;;;;325.25;24.98;;;2.90;99.90;;;;;;5044584;28;20841;-68
2020/12/13 04:05:59;;;;;;;568.97;37.05;;;2.90;99.90;;;;;;5043879;28;20044;-69
2020/12/13 04:08:25;;;;;;;467.17;32.15;;;2.90;99.90;;;;;;5044243;28;20441;-69
2020/12/13 04:10:51;;;;;;;390.63;29.23;;;2.90;99.90;;;;;;5043565;28;20087;-68
2020/12/13 04:13:36;;;;;;;650.65;41.53;;;2.90;99.90;;;;;;5010420;28;20045;-69
2020/12/13 04:16:02;;;;;;;674.42;39.53;;;2.90;99.90;;;;;;5036543;28;20143;-68
2020/12/13 04:18:47;;;;;;;688.53;43.72;;;2.90;99.90;;;;;;5038740;28;20056;-69
2020/12/13 04:21:13;;;;;;;369.88;29.90;;;2.90;99.90;;;;;;5035167;28;20046;-68
2020/12/13 04:23:38;;;;;;;577.13;36.40;;;2.90;99.90;;;;;;5023954;28;20131;-68
2020/12/13 04:26:24;;;;;;;754.35;43.47;;;2.90;99.90;;;;;;5052649;28;20579;-68
2020/12/13 04:29:10;;;;;;;707.33;38.90;;;2.90;99.90;;;;;;5045732;28;20428;-69
2020/12/13 04:31:36;;;;;;;549.05;34.35;;;2.80;99.90;;;;;;5039434;28;20137;-68
2020/12/13 04:34:21;;;;;;;517.05;33.00;;;2.90;99.90;;;;;;5045192;28;20041;-69
2020/12/13 04:36:47;;;;;;;797.33;48.03;;;2.90;99.90;;;;;;5037143;28;20048;-69
2020/12/13 04:39:34;;;;;;;720.60;39.55;;;2.80;99.90;;;;;;5017729;28;20084;-69
2020/12/13 04:42:22;;;;;;;605.17;37.80;;;2.80;99.90;;;;;;5040734;28;20052;-69
2020/12/13 04:44:48;;;;;;;614.05;40.42;;;2.80;99.90;;;;;;5044462;28;20060;-68
2020/12/13 04:47:44;;;;;;;628.00;39.28;;;2.80;99.90;;;;;;5039848;28;20044;-69
2020/12/13 04:50:10;;;;;;;785.95;41.65;;;2.70;99.90;;;;;;5044924;28;20051;-68
2020/12/13 04:52:57;;;;;;;712.08;38.45;;;2.70;99.90;;;;;;5039493;28;20053;-69
2020/12/13 04:55:54;;;;;;;524.55;29.63;;;2.70;99.90;;;;;;5043126;28;20045;-69
2020/12/13 04:58:40;;;;;;;737.92;38.22;;;2.70;99.90;;;;;;5040303;28;20399;-69
2020/12/13 05:01:05;;;;;;;718.33;43.05;;;2.60;99.90;;;;;;5043607;28;20049;-69
2020/12/13 05:03:31;;;;;;;900.35;46.88;;;2.60;99.90;;;;;;5040077;28;20083;-69
2020/12/13 05:06:01;;;;;;;335.73;25.00;;;2.60;99.90;;;;;;5043864;28;20580;-68
2020/12/13 05:08:28;;;;;;;810.40;41.92;;;2.60;99.90;;;;;;5040003;28;20041;-69
2020/12/13 05:11:15;;;;;;;682.08;43.72;;;2.60;99.90;;;;;;5040774;28;20052;-69
2020/12/13 05:13:41;;;;;;;555.75;35.38;;;2.70;99.90;;;;;;5038346;28;20397;-69
2020/12/13 05:16:07;;;;;;;812.33;56.42;;;2.60;99.90;;;;;;5042486;28;20056;-68
2020/12/13 05:18:40;;;;;;;682.53;50.10;;;2.70;99.90;;;;;;5037287;28;20047;-69
2020/12/13 05:21:06;;;;;;;728.92;59.97;;;2.70;99.90;;;;;;5042626;28;20456;-68
2020/12/13 05:23:53;;;;;;;937.50;65.00;;;2.90;99.90;;;;;;5051533;28;20488;-69
2020/12/13 05:26:21;;;;;;;816.80;62.00;;;2.90;99.90;;;;;;5037137;28;20441;-69
2020/12/13 05:28:52;;;;;;;895.65;77.38;;;3.00;99.90;;;;;;5037368;28;20474;-69
2020/12/13 05:31:24;;;;;;;853.60;66.93;;;3.10;99.90;;;;;;5037877;28;20045;-68
2020/12/13 05:34:01;;;;;;;806.70;56.13;;;3.20;99.90;;;;;;5037116;28;20073;-69
2020/12/13 05:36:28;;;;;;;1074.40;65.57;;;3.20;99.90;;;;;;5036220;28;20041;-69
2020/12/13 05:38:58;;;;;;;1244.93;74.25;;;3.10;99.90;;;;;;5035964;28;20045;-69
2020/12/13 05:41:29;;;;;;;1328.72;81.07;;;3.10;99.90;;;;;;5036930;28;20120;-69
2020/12/13 05:44:43;;;;;;;709.42;56.03;;;3.10;99.90;;;;;;5036679;28;20056;-69
2020/12/13 05:46:54;;;;;;;800.80;57.05;;;3.20;99.90;;;;;;5040438;28;20257;-70
2020/12/13 05:49:50;;;;;;;789.90;56.80;;;3.20;99.90;;;;;;5043824;28;20045;-68
2020/12/13 05:52:44;;;;;;;850.38;60.55;;;3.30;99.90;;;;;;5031153;28;20046;-68
2020/12/13 05:55:10;;;;;;;809.45;54.08;;;3.30;99.90;;;;;;5043050;28;20133;-69
2020/12/13 05:57:36;;;;;;;1068.07;65.80;;;3.40;99.90;;;;;;5030346;28;20084;-68
2020/12/13 06:00:23;;;;;;;802.78;56.03;;;3.40;99.90;;;;;;5026529;28;20043;-69
2020/12/13 06:02:49;;;;;;;1013.92;62.95;;;3.40;99.90;;;;;;5029468;28;20232;-69
2020/12/13 06:05:16;;;;;;;754.85;54.75;;;3.40;99.90;;;;;;5047434;28;20071;-69
2020/12/13 06:07:49;;;;;;;955.38;58.13;;;3.40;99.90;;;;;;5032657;28;20041;-69
2020/12/13 06:10:35;;;;;;;793.83;54.78;;;3.30;99.90;;;;;;5026123;28;20060;-69
2020/12/13 06:13:08;;;;;;;1032.28;61.05;;;3.40;99.90;;;;;;5028895;28;20473;-69
2020/12/13 06:15:34;;;;;;;;;;;3.40;99.90;;;;;;5046267;28;20392;-68
2020/12/13 06:18:02;;;;;;;842.53;54.90;;;3.40;99.90;;;;;;5032611;28;19922;-69
2020/12/13 06:20:28;;;;;;;897.67;58.58;;;3.40;99.90;;;;;;5047340;28;20095;-69
2020/12/13 06:22:55;;;;;;;1077.53;66.53;;;3.40;99.90;;;;;;5031430;28;20049;-69
2020/12/13 06:25:22;;;;;;;961.03;57.15;;;3.40;99.90;;;;;;5046293;28;20517;-69
2020/12/13 06:28:10;;;;;;;673.90;51.70;;;3.30;99.90;;;;;;5030055;28;20049;-69
2020/12/13 06:30:55;;;;;;;722.72;51.33;;;3.40;99.90;;;;;;5025970;28;20042;-69
2020/12/13 06:33:21;;;;;;;495.23;45.95;;;3.40;99.90;;;;;;5028202;28;20058;-70
2020/12/13 06:35:47;;;;;;;549.08;46.92;;;3.40;99.90;;;;;;5047314;28;20048;-69
2020/12/13 06:38:15;;;;;;;730.60;53.45;;;3.40;99.90;;;;;;5033241;28;20052;-69
2020/12/13 06:40:41;;;;;;;394.00;49.53;;;3.40;99.90;;;;;;5046259;28;20051;-69
2020/12/13 06:43:27;;;;;;;694.67;54.28;;;3.50;99.90;;;;;;5029698;28;20053;-70
2020/12/13 06:46:10;;;;;;;553.22;53.17;;;3.50;99.90;;;;;;5045978;28;20083;-69
2020/12/13 06:48:57;;;;;;;584.20;47.15;;;3.60;99.90;;;;;;5045152;28;20052;-69
2020/12/13 06:51:31;;;;;;;737.17;58.10;;;3.50;99.90;;;;;;5046258;28;20044;-69
2020/12/13 06:54:18;;;;;;;715.03;64.55;;;3.50;99.90;;;;;;5031557;28;20103;-69
2020/12/13 06:56:46;;;;;;;871.20;68.63;;;3.70;99.90;;;;;;5044817;28;20137;-69
2020/12/13 06:59:14;;;;;;;866.13;72.53;;;3.80;99.90;;;;;;5032049;28;20292;-69
2020/12/13 07:01:42;;;;;;;802.60;61.65;;;3.90;99.90;;;;;;5043315;28;20037;-68
2020/12/13 07:04:34;;;;;;;979.85;65.32;;;3.80;99.90;;;;;;5030174;28;20075;-70
2020/12/13 07:07:04;;;;;;;812.90;66.95;;;3.70;99.90;;;;;;5041262;28;20037;-69
2020/12/13 07:09:30;;;;;;;885.22;64.88;;;3.90;99.90;;;;;;5028102;28;20200;-69
2020/12/13 07:12:16;;;;;;;932.40;65.93;;;3.80;99.90;;;;;;5038523;28;20055;-68
2020/12/13 07:14:42;;;;;;;879.63;61.38;;;3.90;99.90;;;;;;5043279;28;20048;-68
2020/12/13 07:17:15;;;;;;;555.65;49.22;;;3.80;99.90;;;;;;5044850;28;20040;-69
2020/12/13 07:19:40;;;;;;;734.50;60.63;;;3.90;99.90;;;;;;5045190;28;20049;-68
2020/12/13 07:22:33;;;;;;;719.80;61.00;;;3.90;99.90;;;;;;5040723;28;20037;-69
2020/12/13 07:25:19;;;;;;;786.60;66.70;;;3.90;99.90;;;;;;5041111;28;20049;-68
2020/12/13 07:27:45;;;;;;;566.72;57.67;;;4.00;99.90;;;;;;5042733;28;20127;-69
2020/12/13 07:30:12;;;;;;;635.42;66.10;;;4.00;99.90;;;;;;5040548;28;20052;-68
2020/12/13 07:32:38;;;;;;;603.15;65.40;;;4.10;99.90;;;;;;5042464;28;20041;-68
2020/12/13 07:35:10;;;;;;;529.22;61.92;;;4.10;99.90;;;;;;5045429;28;20099;-69
2020/12/13 07:37:36;;;;;;;458.60;59.90;;;4.20;99.90;;;;;;5042389;28;20043;-68
2020/12/13 07:40:13;;;;;;;672.72;61.88;;;4.20;99.90;;;;;;5042596;28;20110;-68
2020/12/13 07:42:39;;;;;;;509.00;59.15;;;4.20;99.90;;;;;;5043773;28;20588;-69
2020/12/13 07:45:25;;;;;;;537.83;59.65;;;4.30;99.90;;;;;;5043053;28;20045;-69
2020/12/13 07:48:10;;;;;;;551.42;60.15;;;4.30;99.90;;;;;;5039783;28;20401;-69
2020/12/13 07:50:47;;;;;;;887.90;66.32;;;4.30;99.90;;;;;;5044523;28;20774;-67
2020/12/13 07:53:26;;;;;;;901.25;71.95;;;4.20;99.90;;;;;;5032839;28;20376;-69
2020/12/13 07:55:52;;;;;;;714.85;54.10;;;4.20;99.90;;;;;;5038957;28;20037;-69
2020/12/13 07:58:19;;;;;;;479.88;47.30;;;4.20;99.90;;;;;;5037224;28;20037;-69
2020/12/13 08:00:44;;;;;;;951.22;63.70;;;4.10;99.90;;;;;;5043035;28;20045;-69
2020/12/13 08:03:10;;;;;;;750.08;58.00;;;4.00;99.90;;;;;;5031345;28;20107;-70
2020/12/13 08:05:38;;;;;;;511.75;46.72;;;4.00;99.90;;;;;;5031168;28;20045;-69
2020/12/13 08:08:03;;;;;;;671.47;48.60;;;4.00;99.90;;;;;;5023927;28;20373;-69
2020/12/13 08:10:29;;;;;;;601.75;47.15;;;4.00;99.90;;;;;;5037039;28;20485;-68
2020/12/13 08:12:55;;;;;;;899.20;59.72;;;4.00;99.90;;;;;;5036696;28;20037;-68
2020/12/13 08:15:21;;;;;;;461.75;45.72;;;4.00;99.90;;;;;;5037696;28;20052;-69
2020/12/13 08:18:07;;;;;;;768.92;54.53;;;4.10;99.90;;;;;;5037025;28;20068;-69
2020/12/13 08:20:37;;;;;;;654.63;50.42;;;4.00;99.90;;;;;;5023300;28;20053;-68
2020/12/13 08:23:05;;;;;;;710.13;51.65;;;4.10;99.90;;;;;;5025962;28;20049;-68
2020/12/13 08:25:51;;;;;;;729.42;54.03;;;4.00;99.90;;;;;;5040643;28;20051;-68
2020/12/13 08:28:39;;;;;;;811.92;60.58;;;4.10;99.90;;;;;;5040913;28;20045;-68
2020/12/13 08:31:11;;;;;;;760.25;57.03;;;4.10;99.90;;;;;;5040831;28;20041;-68
2020/12/13 08:33:38;;;;;;;372.30;41.58;;;4.10;99.90;;;;;;5042066;28;20103;-70
2020/12/13 08:36:18;;;;;;;663.35;54.65;;;4.20;99.90;;;;;;5032196;28;20049;-69
2020/12/13 08:38:44;;;;;;;985.40;73.65;;;4.20;99.90;;;;;;5039330;28;20513;-68
2020/12/13 08:41:12;;;;;;;975.38;72.85;;;4.30;99.90;;;;;;5036352;28;20083;-70
2020/12/13 08:43:38;;;;;;;967.70;74.60;;;4.30;99.90;;;;;;5041574;28;20043;-70
2020/12/13 08:46:33;;;;;;;658.95;58.72;;;4.40;99.90;;;;;;5037396;28;20056;-69
2020/12/13 08:49:28;;;;;;;1005.47;74.57;;;4.40;99.90;;;;;;5033056;28;20045;-69
2020/12/13 08:51:53;;;;;;;869.75;62.88;;;4.40;99.90;;;;;;5041147;28;20041;-69
2020/12/13 08:54:47;;;;;;;789.35;59.08;;;4.40;99.90;;;;;;5040767;28;20044;-69
2020/12/13 08:57:12;;;;;;;649.67;53.50;;;4.40;99.90;;;;;;5032023;28;20072;-69
2020/12/13 08:59:38;;;;;;;715.25;60.45;;;4.40;99.90;;;;;;5031255;28;20045;-69
2020/12/13 09:02:24;;;;;;;648.30;55.45;;;4.40;99.90;;;;;;5022973;28;20114;-69
2020/12/13 09:05:09;;;;;;;791.55;60.05;;;4.40;99.90;;;;;;5033736;28;20397;-70
2020/12/13 09:07:35;;;;;;;574.95;54.88;;;4.40;99.90;;;;;;5038452;28;20045;-70
2020/12/13 09:10:21;;;;;;;329.25;46.80;;;4.40;99.90;;;;;;5042063;28;20052;-69
2020/12/13 09:13:07;;;;;;;307.38;45.05;;;4.50;99.90;;;;;;5041995;28;20049;-69
2020/12/13 09:15:33;;;;;;;314.33;47.28;;;4.50;99.90;;;;;;5023329;28;20046;-71
2020/12/13 09:18:03;;;;;;;270.10;43.92;;;4.50;99.90;;;;;;5040518;28;20048;-70
2020/12/13 09:20:34;;;;;;;200.40;46.53;;;4.50;99.90;;;;;;5040970;28;20053;-70
2020/12/13 09:23:20;;;;;;;163.40;46.92;;;4.60;99.90;;;;;;5037387;28;20049;-70
2020/12/13 09:25:48;;;;;;;149.18;41.92;;;4.60;99.90;;;;;;5043171;28;20076;-69
2020/12/13 09:28:15;;;;;;;123.70;39.58;;;4.50;99.90;;;;;;5041444;28;20124;-69
2020/12/13 09:30:43;;;;;;;155.25;43.60;;;4.60;99.90;;;;;;5041183;28;20112;-70
2020/12/13 09:33:29;;;;;;;152.73;42.35;;;4.60;99.90;;;;;;5047665;28;20068;-69
2020/12/13 09:35:54;;;;;;;151.18;44.20;;;4.60;99.90;;;;;;5045079;28;20069;-69
2020/12/13 09:38:40;;;;;;;149.73;42.70;;;4.70;99.90;;;;;;5024305;28;20055;-68
2020/12/13 09:41:06;;;;;;;151.13;45.90;;;4.70;99.90;;;;;;5041676;28;20044;-69
2020/12/13 09:43:31;;;;;;;156.52;48.85;;;4.70;99.90;;;;;;5041318;28;20045;-69
2020/12/13 09:45:57;;;;;;;155.48;51.35;;;4.80;99.90;;;;;;5031986;28;20381;-68
2020/12/13 09:48:42;;;;;;;143.73;45.15;;;4.90;99.90;;;;;;5023184;28;20068;-69
2020/12/13 09:51:08;;;;;;;127.85;47.88;;;4.90;99.90;;;;;;5023304;28;20429;-69
2020/12/13 09:53:33;;;;;;;117.95;43.65;;;4.90;99.90;;;;;;5032029;28;20269;-69
2020/12/13 09:55:59;;;;;;;119.50;43.88;;;5.00;99.90;;;;;;5033636;28;20056;-69
2020/12/13 09:58:25;;;;;;;114.53;45.28;;;5.00;99.90;;;;;;5023582;28;20413;-68
2020/12/13 10:00:50;;;;;;;107.32;44.80;;;5.10;99.90;;;;;;5022954;28;20049;-70
2020/12/13 10:03:16;;;;;;;110.38;45.15;;;5.10;99.90;;;;;;5023488;28;20041;-70
2020/12/13 10:09:01;;;;;;;114.82;43.95;;;5.20;99.90;;;;;;5040323;28;20107;-69
2020/12/13 10:11:28;;;;;;;107.15;43.70;;;5.30;99.90;;;;;;5022880;28;20241;-69
2020/12/13 10:14:14;;;;;;;109.55;44.15;;;5.30;99.90;;;;;;5022173;28;20306;-69
2020/12/13 10:16:43;;;;;;;105.80;40.20;;;5.40;99.90;;;;;;5035621;28;20045;-69
2020/12/13 10:19:09;;;;;;;117.45;41.88;;;5.40;99.90;;;;;;5046279;28;20163;-69
2020/12/13 10:21:55;;;;;;;120.13;45.13;;;5.40;99.90;;;;;;5034073;28;20373;-69
2020/12/13 10:24:21;;;;;;;141.27;46.90;;;5.50;99.90;;;;;;5038997;28;20187;-69
2020/12/13 10:27:06;;;;;;;139.00;51.42;;;5.50;99.90;;;;;;5035636;28;20072;-68
2020/12/13 10:29:32;;;;;;;130.15;48.10;;;5.50;99.90;;;;;;5039122;28;20131;-69
2020/12/13 10:32:17;;;;;;;142.48;46.90;;;5.50;99.90;;;;;;5040571;28;20545;-70
2020/12/13 10:34:44;;;;;;;128.65;46.95;;;5.60;99.90;;;;;;5038435;28;20065;-69
2020/12/13 10:37:09;;;;;;;126.45;44.22;;;5.60;99.90;;;;;;5038192;28;20099;-69
2020/12/13 10:39:35;;;;;;;131.52;46.08;;;5.60;99.90;;;;;;5038544;28;20048;-69
2020/12/13 10:42:21;;;;;;;138.43;44.97;;;5.70;99.90;;;;;;5051981;28;20037;-70
2020/12/13 10:45:06;;;;;;;152.27;50.25;;;5.70;99.90;;;;;;5040308;28;20275;-69
2020/12/13 10:47:52;;;;;;;140.98;48.55;;;5.80;99.90;;;;;;5043180;28;20037;-68
2020/12/13 10:50:18;;;;;;;145.20;47.70;;;5.90;99.90;;;;;;5042983;28;20044;-69
2020/12/13 10:52:44;;;;;;;143.95;47.95;;;5.90;99.90;;;;;;5045842;28;20081;-68
2020/12/13 10:55:10;;;;;;;153.95;49.67;;;6.00;99.90;;;;;;5034647;28;20069;-69
2020/12/13 10:57:55;;;;;;;139.93;45.90;;;6.00;99.90;;;;;;5048690;28;20140;-69
2020/12/13 11:00:41;;;;;;;159.23;50.30;;;6.00;99.90;;;;;;5025257;28;20056;-69
2020/12/13 11:03:06;;;;;;;164.48;53.15;;;6.00;99.90;;;;;;5028221;28;20445;-69
2020/12/13 11:05:32;;;;;;;175.52;49.92;;;6.00;99.90;;;;;;5045790;28;20045;-68
2020/12/13 11:07:57;;;;;;;165.98;49.22;;;6.10;99.90;;;;;;5040517;28;20513;-70
2020/12/13 11:10:23;;;;;;;193.30;53.85;;;6.10;99.90;;;;;;5039980;28;20425;-69
2020/12/13 11:13:09;;;;;;;201.98;52.83;;;6.20;99.90;;;;;;5032758;28;20182;-70
2020/12/13 11:15:34;;;;;;;225.25;54.65;;;6.20;99.90;;;;;;5043635;28;20670;-69
2020/12/13 11:18:00;;;;;;;198.80;49.85;;;6.20;99.90;;;;;;5042587;28;20049;-69
2020/12/13 11:20:46;;;;;;;181.77;54.00;;;6.20;99.90;;;;;;5038992;28;20179;-69
2020/12/13 11:23:31;;;;;;;190.13;51.42;;;6.30;99.90;;;;;;5024006;28;20048;-69
2020/12/13 11:25:57;;;;;;;181.38;57.75;;;6.30;99.90;;;;;;5039682;28;20406;-69
2020/12/13 11:28:42;;;;;;;159.68;45.17;;;6.30;99.90;;;;;;5037820;28;20047;-70
2020/12/13 11:31:08;;;;;;;179.63;49.55;;;6.30;99.90;;;;;;5040806;28;20041;-69
2020/12/13 11:33:33;;;;;;;180.80;52.53;;;6.40;99.90;;;;;;5040120;28;20130;-69
2020/12/13 11:36:00;;;;;;;157.38;52.00;;;6.40;99.90;;;;;;5038870;28;20041;-70
2020/12/13 11:38:25;;;;;;;165.50;52.05;;;6.50;99.90;;;;;;5038509;28;20053;-70
2020/12/13 11:41:11;;;;;;;149.25;50.35;;;6.50;99.90;;;;;;5024462;28;20120;-69
2020/12/13 11:43:37;;;;;;;168.40;51.55;;;6.60;99.90;;;;;;5042699;28;20128;-69
2020/12/13 11:46:02;;;;;;;136.23;47.08;;;6.60;99.90;;;;;;5044690;28;20474;-69
2020/12/13 11:48:28;;;;;;;145.02;49.65;;;6.70;99.90;;;;;;5040031;28;20041;-69
2020/12/13 11:50:53;;;;;;;121.18;46.70;;;6.70;99.90;;;;;;5044630;28;20053;-69
2020/12/13 11:53:19;;;;;;;123.85;45.78;;;6.80;99.90;;;;;;5043636;28;20053;-69
2020/12/13 11:55:47;;;;;;;129.32;48.53;;;6.80;99.90;;;;;;5033942;28;20498;-70
2020/12/13 11:58:13;;;;;;;118.85;50.58;;;6.90;99.90;;;;;;5053767;28;20048;-69
2020/12/13 12:00:39;;;;;;;110.03;44.45;;;6.90;99.90;;;;;;5044138;28;20060;-70
2020/12/13 12:03:05;;;;;;;110.03;44.45;;;7.00;99.90;;;;;;5042924;28;20049;-68
2020/12/13 12:05:50;;;;;;;98.75;40.53;;;7.10;99.90;;;;;;5010811;28;20051;-70
2020/12/13 12:08:36;;;;;;;88.00;41.88;;;7.20;99.90;;;;;;5027150;28;20055;-70
2020/12/13 12:11:01;;;;;;;79.03;39.88;;;7.60;99.90;;;;;;5042062;28;20040;-69
2020/12/13 12:13:47;;;;;;;71.80;36.83;;;7.60;99.90;;;;;;5044550;28;20409;-69
2020/12/13 12:16:34;;;;;;;69.22;37.65;;;7.80;99.90;;;;;;5041684;28;20051;-69
2020/12/13 12:19:00;;;;;;;67.57;35.10;;;7.60;99.90;;;;;;5043747;28;20045;-69
2020/12/13 12:21:27;;;;;;;62.85;32.75;;;7.70;99.90;;;;;;5035388;28;20045;-69
2020/12/13 12:23:54;;;;;;;63.30;33.22;;;7.70;99.90;;;;;;5044207;28;20049;-69
2020/12/13 12:26:19;;;;;;;59.60;32.15;;;7.70;99.90;;;;;;5037033;28;20794;-69
2020/12/13 12:28:47;;;;;;;65.05;36.33;;;7.70;99.90;;;;;;5039820;28;20136;-69
2020/12/13 12:31:32;;;;;;;56.55;32.17;;;7.60;99.90;;;;;;5067460;28;20049;-69
2020/12/13 12:34:18;;;;;;;63.47;31.25;;;7.60;99.90;;;;;;5041231;28;20667;-69
2020/12/13 12:36:44;;;;;;;59.95;31.45;;;7.60;99.90;;;;;;5040536;28;20231;-69
2020/12/13 12:39:10;;;;;;;60.03;31.73;;;7.60;99.90;;;;;;5026359;28;20402;-69
2020/12/13 12:41:56;;;;;;;53.83;29.10;;;7.70;99.90;;;;;;5029400;28;20045;-69
2020/12/13 12:44:21;;;;;;;46.55;28.30;;;8.00;99.90;;;;;;5035322;28;20040;-69
2020/12/13 12:46:47;;;;;;;42.28;24.85;;;8.40;99.60;;;;;;5040850;28;20115;-69
2020/12/13 12:49:13;;;;;;;41.63;26.10;;;9.40;97.40;;;;;;5042542;28;20048;-68
2020/12/13 12:51:39;;;;;;;34.15;20.70;;;10.00;95.60;;;;;;5034568;28;20535;-68
2020/12/13 12:54:25;;;;;;;32.95;19.25;;;10.10;95.00;;;;;;5023409;28;20338;-68
2020/12/13 12:56:50;;;;;;;31.38;18.85;;;9.00;96.00;;;;;;5024393;28;20469;-69
2020/12/13 12:59:46;;;;;;;31.73;18.98;;;8.70;96.80;;;;;;5041007;28;20041;-69